Latest Weather Observations for Greenbank (Defence)
Issued at 5:51 am EST Wednesday 2 September 2026 (issued every 10 minutes, with the page automatically refreshed every 10 minutes)
| Station Details | ID: 140009 | Name: GREENBANK (DEFENCE) | Lat: -27.69 | Lon: 152.99 | Height: 41.46 m |
| Date/Time EST |
Temp °C |
App Temp °C |
Dew Point °C |
Rel Hum % |
Delta-T °C |
Wind | Press QNH hPa |
Press MSL hPa |
Rain since 9am mm |
||||
|---|---|---|---|---|---|---|---|---|---|---|---|---|---|
| Dir | Spd km/h |
Gust km/h |
Spd kts |
Gust kts |
|||||||||
| 02/05:30am | 6.7 | 5.9 | 6.6 | 99 | 0.0 | CALM | 0 | 0 | 0 | 0 | - | - | 2.0 |
| 02/05:00am | 7.0 | 6.3 | 6.9 | 99 | 0.0 | CALM | 0 | 0 | 0 | 0 | - | - | 2.0 |
| 02/04:30am | 7.3 | 6.7 | 7.2 | 99 | 0.0 | CALM | 0 | 0 | 0 | 0 | - | - | 2.0 |
| 02/04:00am | 7.5 | 6.9 | 7.4 | 99 | 0.0 | CALM | 0 | 0 | 0 | 0 | - | - | 2.0 |
| 02/03:30am | 7.7 | 7.1 | 7.6 | 99 | 0.0 | CALM | 0 | 0 | 0 | 0 | - | - | 2.0 |
| 02/03:00am | 7.9 | 7.4 | 7.8 | 99 | 0.0 | CALM | 0 | 0 | 0 | 0 | - | - | 1.8 |
| 02/02:30am | 8.2 | 7.8 | 8.1 | 99 | 0.0 | CALM | 0 | 0 | 0 | 0 | - | - | 1.8 |
| 02/02:00am | 8.5 | 8.1 | 8.4 | 99 | 0.0 | CALM | 0 | 0 | 0 | 0 | - | - | 1.8 |
| 02/01:30am | 8.8 | 8.5 | 8.7 | 99 | 0.0 | CALM | 0 | 0 | 0 | 0 | - | - | 1.8 |
| 02/01:00am | 9.1 | 8.9 | 9.0 | 99 | 0.0 | CALM | 0 | 0 | 0 | 0 | - | - | 1.8 |
| 02/12:30am | 9.3 | 9.1 | 9.2 | 99 | 0.0 | CALM | 0 | 0 | 0 | 0 | - | - | 1.8 |
| 02/12:00am | 9.7 | 9.6 | 9.6 | 99 | 0.0 | CALM | 0 | 0 | 0 | 0 | - | - | 1.8 |
| Date/Time EST |
Temp °C |
App Temp °C |
Dew Point °C |
Rel Hum % |
Delta-T °C |
Wind | Press QNH hPa |
Press MSL hPa |
Rain since 9am mm |
||||
|---|---|---|---|---|---|---|---|---|---|---|---|---|---|
| Dir | Spd km/h |
Gust km/h |
Spd kts |
Gust kts |
|||||||||
| 01/11:30pm | 10.1 | 10.2 | 10.0 | 99 | 0.1 | CALM | 0 | 0 | 0 | 0 | - | - | 1.8 |
| 01/11:00pm | 10.4 | 10.5 | 10.2 | 99 | 0.1 | CALM | 0 | 0 | 0 | 0 | - | - | 1.8 |
| 01/10:30pm | 10.9 | 11.1 | 10.7 | 99 | 0.1 | CALM | 0 | 0 | 0 | 0 | - | - | 1.8 |
| 01/10:00pm | 11.3 | 11.7 | 11.1 | 99 | 0.1 | CALM | 0 | 0 | 0 | 0 | - | - | 1.8 |
| 01/09:30pm | 11.8 | 12.3 | 11.5 | 98 | 0.2 | CALM | 0 | 0 | 0 | 0 | - | - | 1.8 |
| 01/09:00pm | 12.1 | 12.7 | 11.8 | 98 | 0.2 | CALM | 0 | 0 | 0 | 0 | - | - | 1.8 |
| 01/08:30pm | 12.5 | 13.1 | 12.0 | 97 | 0.3 | CALM | 0 | 0 | 0 | 0 | - | - | 1.8 |
| 01/08:00pm | 13.1 | 13.9 | 12.5 | 96 | 0.3 | CALM | 0 | 0 | 0 | 0 | - | - | 1.8 |
| 01/07:30pm | 13.9 | 14.8 | 13.0 | 94 | 0.5 | CALM | 0 | 0 | 0 | 0 | - | - | 1.8 |
| 01/07:00pm | 14.6 | 15.5 | 13.0 | 90 | 0.9 | CALM | 0 | 0 | 0 | 0 | - | - | 1.8 |
| 01/06:30pm | 15.6 | 16.6 | 13.3 | 86 | 1.3 | CALM | 0 | 2 | 0 | 1 | - | - | 1.8 |
| 01/06:00pm | 16.7 | 17.7 | 13.2 | 80 | 2.0 | CALM | 0 | 2 | 0 | 1 | - | - | 1.8 |
| 01/05:30pm | 18.8 | 19.4 | 13.0 | 69 | 3.3 | NE | 2 | 6 | 1 | 3 | - | - | 1.8 |
| 01/05:00pm | 20.3 | 19.9 | 13.0 | 63 | 4.2 | NNE | 7 | 13 | 4 | 7 | - | - | 1.8 |
| 01/04:30pm | 21.3 | 21.3 | 13.5 | 61 | 4.5 | NE | 6 | 11 | 3 | 6 | - | - | 1.8 |
| 01/04:00pm | 21.4 | 20.5 | 13.8 | 62 | 4.4 | NNE | 11 | 19 | 6 | 10 | - | - | 1.8 |
| 01/03:30pm | 21.2 | 20.6 | 13.6 | 62 | 4.4 | NNE | 9 | 13 | 5 | 7 | - | - | 1.8 |
| 01/03:00pm | 20.9 | 21.0 | 13.8 | 64 | 4.1 | NE | 6 | 9 | 3 | 5 | - | - | 1.8 |
| 01/02:30pm | 21.3 | 21.3 | 13.7 | 62 | 4.4 | NE | 6 | 9 | 3 | 5 | - | - | 1.8 |
| 01/02:00pm | 21.8 | 21.6 | 13.7 | 60 | 4.7 | NNE | 7 | 11 | 4 | 6 | - | - | 1.8 |
| 01/01:30pm | 21.9 | 21.7 | 13.0 | 57 | 5.1 | ESE | 6 | 9 | 3 | 5 | - | - | 1.8 |
| 01/01:00pm | 22.5 | 22.3 | 13.0 | 55 | 5.5 | ENE | 6 | 9 | 3 | 5 | - | - | 1.8 |
| 01/12:30pm | 21.4 | 21.0 | 12.5 | 57 | 5.0 | SE | 6 | 9 | 3 | 5 | - | - | 1.8 |
| 01/12:00pm | 21.5 | 21.8 | 14.6 | 65 | 4.1 | SSE | 6 | 11 | 3 | 6 | - | - | 1.8 |
| 01/11:30am | 20.7 | 21.5 | 14.8 | 69 | 3.5 | SE | 4 | 6 | 2 | 3 | - | - | 1.8 |
| 01/11:00am | 18.7 | 19.8 | 15.6 | 82 | 1.8 | SW | 4 | 6 | 2 | 3 | - | - | 1.8 |
| 01/10:30am | 18.2 | 19.0 | 15.8 | 86 | 1.4 | S | 6 | 7 | 3 | 4 | - | - | 1.8 |
| 01/10:00am | 16.3 | 17.3 | 16.3 | 100 | 0.0 | SW | 6 | 9 | 3 | 5 | - | - | 1.8 |
| 01/09:30am | 14.9 | 15.6 | 14.6 | 98 | 0.2 | S | 4 | 6 | 2 | 3 | - | - | 1.6 |
| 01/09:00am | 15.3 | 15.7 | 13.8 | 91 | 0.8 | SE | 4 | 7 | 2 | 4 | - | - | 0.0 |
| 01/08:30am | 14.9 | 15.4 | 13.9 | 94 | 0.6 | SSW | 4 | 9 | 2 | 5 | - | - | 0.0 |
| 01/08:00am | 12.5 | 13.3 | 12.5 | 100 | 0.0 | CALM | 0 | 4 | 0 | 2 | - | - | 0.0 |
| 01/07:30am | 11.4 | 11.8 | 11.4 | 100 | 0.0 | CALM | 0 | 0 | 0 | 0 | - | - | 0.0 |
| 01/07:00am | 10.5 | 10.6 | 10.3 | 99 | 0.1 | CALM | 0 | 0 | 0 | 0 | - | - | 0.0 |
| 01/06:30am | 9.4 | 9.3 | 9.3 | 99 | 0.0 | CALM | 0 | 0 | 0 | 0 | - | - | 0.0 |
| 01/06:00am | 8.8 | 8.5 | 8.7 | 99 | 0.0 | CALM | 0 | 0 | 0 | 0 | - | - | 0.0 |
| 01/05:30am | 8.5 | 8.1 | 8.4 | 99 | 0.0 | CALM | 0 | 0 | 0 | 0 | - | - | 0.0 |
| 01/05:00am | 8.6 | 8.3 | 8.5 | 99 | 0.0 | CALM | 0 | 0 | 0 | 0 | - | - | 0.0 |
| 01/04:30am | 8.8 | 8.5 | 8.7 | 99 | 0.0 | CALM | 0 | 0 | 0 | 0 | - | - | 0.0 |
| 01/04:00am | 8.7 | 8.4 | 8.6 | 99 | 0.0 | CALM | 0 | 0 | 0 | 0 | - | - | 0.0 |
| 01/03:30am | 8.7 | 8.4 | 8.6 | 99 | 0.0 | CALM | 0 | 0 | 0 | 0 | - | - | 0.0 |
| 01/03:00am | 8.7 | 8.4 | 8.6 | 99 | 0.0 | CALM | 0 | 0 | 0 | 0 | - | - | 0.0 |
| 01/02:30am | 9.0 | 8.8 | 8.9 | 99 | 0.0 | CALM | 0 | 0 | 0 | 0 | - | - | 0.0 |
| 01/02:00am | 9.2 | 9.0 | 9.1 | 99 | 0.0 | CALM | 0 | 0 | 0 | 0 | - | - | 0.0 |
| 01/01:30am | 9.4 | 9.3 | 9.3 | 99 | 0.0 | CALM | 0 | 0 | 0 | 0 | - | - | 0.0 |
| 01/01:00am | 9.7 | 9.6 | 9.6 | 99 | 0.0 | CALM | 0 | 0 | 0 | 0 | - | - | 0.0 |
| 01/12:30am | 10.0 | 10.0 | 9.9 | 99 | 0.1 | CALM | 0 | 0 | 0 | 0 | - | - | 0.0 |
| 01/12:00am | 10.5 | 10.6 | 10.3 | 99 | 0.1 | CALM | 0 | 0 | 0 | 0 | - | - | 0.0 |
| Date/Time EST |
Temp °C |
App Temp °C |
Dew Point °C |
Rel Hum % |
Delta-T °C |
Wind | Press QNH hPa |
Press MSL hPa |
Rain since 9am mm |
||||
|---|---|---|---|---|---|---|---|---|---|---|---|---|---|
| Dir | Spd km/h |
Gust km/h |
Spd kts |
Gust kts |
|||||||||
| 31/11:30pm | 11.0 | 11.3 | 10.8 | 99 | 0.1 | CALM | 0 | 0 | 0 | 0 | - | - | 0.0 |
| 31/11:00pm | 11.5 | 11.9 | 11.3 | 99 | 0.1 | CALM | 0 | 0 | 0 | 0 | - | - | 0.0 |
| 31/10:30pm | 12.0 | 12.5 | 11.7 | 98 | 0.2 | CALM | 0 | 0 | 0 | 0 | - | - | 0.0 |
| 31/10:00pm | 12.7 | 13.5 | 12.4 | 98 | 0.2 | CALM | 0 | 0 | 0 | 0 | - | - | 0.0 |
| 31/09:30pm | 13.3 | 14.2 | 12.8 | 97 | 0.3 | CALM | 0 | 0 | 0 | 0 | - | - | 0.0 |
| 31/09:00pm | 13.7 | 14.7 | 13.2 | 97 | 0.3 | CALM | 0 | 0 | 0 | 0 | - | - | 0.0 |
| 31/08:30pm | 14.0 | 15.0 | 13.2 | 95 | 0.4 | CALM | 0 | 0 | 0 | 0 | - | - | 0.0 |
| 31/08:00pm | 14.8 | 15.8 | 13.3 | 91 | 0.8 | CALM | 0 | 0 | 0 | 0 | - | - | 0.0 |
| 31/07:30pm | 15.7 | 16.8 | 13.4 | 86 | 1.3 | CALM | 0 | 0 | 0 | 0 | - | - | 0.0 |
| 31/07:00pm | 17.4 | 18.6 | 13.9 | 80 | 2.0 | CALM | 0 | 0 | 0 | 0 | - | - | 0.0 |
| 31/06:30pm | 18.2 | 19.1 | 14.1 | 77 | 2.4 | ENE | 2 | 7 | 1 | 4 | - | - | 0.0 |
| 31/06:00pm | 18.9 | 18.8 | 14.0 | 73 | 2.8 | E | 7 | 17 | 4 | 9 | - | - | 0.0 |
| 31/05:30pm | 19.2 | 19.2 | 13.6 | 70 | 3.2 | E | 6 | 9 | 3 | 5 | - | - | 0.0 |
| 31/05:00pm | 19.5 | 19.3 | 13.7 | 69 | 3.3 | E | 7 | 17 | 4 | 9 | - | - | 0.0 |
| 31/04:30pm | 20.4 | 19.5 | 13.6 | 65 | 3.9 | E | 11 | 20 | 6 | 11 | - | - | 0.0 |
| 31/04:00pm | 20.7 | 20.1 | 14.6 | 68 | 3.6 | E | 11 | 28 | 6 | 15 | - | - | 0.0 |
| 31/03:30pm | 20.2 | 19.7 | 13.9 | 67 | 3.6 | E | 9 | 19 | 5 | 10 | - | - | 0.0 |
| 31/03:00pm | 21.1 | 20.3 | 14.0 | 64 | 4.1 | ENE | 11 | 24 | 6 | 13 | - | - | 0.0 |
| 31/02:30pm | 21.8 | 20.2 | 12.9 | 57 | 5.1 | ENE | 13 | 24 | 7 | 13 | - | - | 0.0 |
| 31/02:00pm | 22.9 | 22.1 | 12.8 | 53 | 5.8 | ENE | 9 | 20 | 5 | 11 | - | - | 0.0 |
| 31/01:30pm | 22.2 | 21.3 | 12.5 | 54 | 5.5 | E | 9 | 19 | 5 | 10 | - | - | 0.0 |
| 31/01:00pm | 22.6 | 21.9 | 11.4 | 49 | 6.3 | E | 6 | 17 | 3 | 9 | - | - | 0.0 |
| 31/12:30pm | 22.3 | 21.5 | 11.1 | 49 | 6.2 | E | 6 | 9 | 3 | 5 | - | - | 0.0 |
| 31/12:00pm | 22.6 | 21.8 | 11.0 | 48 | 6.4 | ESE | 6 | 11 | 3 | 6 | - | - | 0.0 |
| 31/11:30am | 22.6 | 21.7 | 10.7 | 47 | 6.6 | E | 6 | 9 | 3 | 5 | - | - | 0.0 |
| 31/11:00am | 22.5 | 22.2 | 11.3 | 49 | 6.2 | SW | 4 | 6 | 2 | 3 | - | - | 0.0 |
| 31/10:30am | 21.6 | 20.9 | 11.3 | 52 | 5.7 | E | 6 | 7 | 3 | 4 | - | - | 0.0 |
| 31/10:00am | 21.4 | 20.4 | 10.9 | 51 | 5.8 | SE | 7 | 15 | 4 | 8 | - | - | 0.0 |
| 31/09:30am | 20.3 | 19.5 | 11.2 | 56 | 5.0 | SE | 6 | 9 | 3 | 5 | - | - | 0.0 |
| 31/09:00am | 19.1 | 17.9 | 11.7 | 62 | 4.1 | S | 9 | 17 | 5 | 9 | - | - | 0.0 |
| 31/08:30am | 17.9 | 17.1 | 11.7 | 67 | 3.4 | S | 7 | 15 | 4 | 8 | - | - | 0.0 |
| 31/08:00am | 15.3 | 16.2 | 12.8 | 85 | 1.4 | CALM | 0 | 0 | 0 | 0 | - | - | 0.0 |
| 31/07:30am | 11.0 | 11.3 | 10.8 | 99 | 0.1 | CALM | 0 | 0 | 0 | 0 | - | - | 0.0 |
| 31/07:00am | 8.5 | 8.1 | 8.4 | 99 | 0.0 | CALM | 0 | 0 | 0 | 0 | - | - | 0.0 |
| 31/06:30am | 6.9 | 6.2 | 6.8 | 99 | 0.0 | CALM | 0 | 0 | 0 | 0 | - | - | 0.0 |
| 31/06:00am | 7.0 | 6.3 | 6.9 | 99 | 0.0 | CALM | 0 | 0 | 0 | 0 | - | - | 0.0 |
| 31/05:30am | 7.1 | 6.4 | 7.0 | 99 | 0.0 | CALM | 0 | 0 | 0 | 0 | - | - | 0.0 |
| 31/05:00am | 7.5 | 6.9 | 7.4 | 99 | 0.0 | CALM | 0 | 0 | 0 | 0 | - | - | 0.0 |
| 31/04:30am | 7.7 | 7.1 | 7.6 | 99 | 0.0 | CALM | 0 | 0 | 0 | 0 | - | - | 0.0 |
| 31/04:00am | 7.9 | 7.4 | 7.8 | 99 | 0.0 | CALM | 0 | 0 | 0 | 0 | - | - | 0.0 |
| 31/03:30am | 8.2 | 7.8 | 8.1 | 99 | 0.0 | CALM | 0 | 0 | 0 | 0 | - | - | 0.0 |
| 31/03:00am | 8.4 | 8.0 | 8.3 | 99 | 0.0 | CALM | 0 | 0 | 0 | 0 | - | - | 0.0 |
| 31/02:30am | 8.7 | 8.4 | 8.6 | 99 | 0.0 | CALM | 0 | 0 | 0 | 0 | - | - | 0.0 |
| 31/02:00am | 8.5 | 8.1 | 8.4 | 99 | 0.0 | CALM | 0 | 0 | 0 | 0 | - | - | 0.0 |
| 31/01:30am | 8.1 | 7.6 | 8.0 | 99 | 0.0 | CALM | 0 | 0 | 0 | 0 | - | - | 0.0 |
| 31/01:00am | 8.4 | 8.0 | 8.3 | 99 | 0.0 | CALM | 0 | 0 | 0 | 0 | - | - | 0.0 |
| 31/12:30am | 8.5 | 8.1 | 8.4 | 99 | 0.0 | CALM | 0 | 0 | 0 | 0 | - | - | 0.0 |
| 31/12:00am | 8.8 | 8.5 | 8.5 | 98 | 0.1 | CALM | 0 | 0 | 0 | 0 | - | - | 0.0 |
| Date/Time EST |
Temp °C |
App Temp °C |
Dew Point °C |
Rel Hum % |
Delta-T °C |
Wind | Press QNH hPa |
Press MSL hPa |
Rain since 9am mm |
||||
|---|---|---|---|---|---|---|---|---|---|---|---|---|---|
| Dir | Spd km/h |
Gust km/h |
Spd kts |
Gust kts |
|||||||||
| 30/11:30pm | 9.2 | 8.9 | 8.7 | 97 | 0.2 | CALM | 0 | 0 | 0 | 0 | - | - | 0.0 |
| 30/11:00pm | 9.7 | 9.5 | 9.2 | 97 | 0.2 | CALM | 0 | 0 | 0 | 0 | - | - | 0.0 |
| 30/10:30pm | 10.1 | 10.0 | 9.5 | 96 | 0.3 | CALM | 0 | 0 | 0 | 0 | - | - | 0.0 |
| 30/10:00pm | 10.4 | 10.3 | 9.6 | 95 | 0.4 | CALM | 0 | 0 | 0 | 0 | - | - | 0.0 |
| 30/09:30pm | 11.0 | 11.0 | 9.8 | 92 | 0.6 | CALM | 0 | 0 | 0 | 0 | - | - | 0.0 |
| 30/09:00pm | 11.8 | 11.9 | 10.2 | 90 | 0.8 | CALM | 0 | 0 | 0 | 0 | - | - | 0.0 |
| 30/08:30pm | 12.6 | 12.8 | 10.7 | 88 | 1.0 | CALM | 0 | 0 | 0 | 0 | - | - | 0.0 |
| 30/08:00pm | 13.7 | 14.1 | 11.2 | 85 | 1.3 | CALM | 0 | 0 | 0 | 0 | - | - | 0.0 |
| 30/07:30pm | 14.8 | 15.2 | 11.4 | 80 | 1.8 | CALM | 0 | 4 | 0 | 2 | - | - | 0.0 |
| 30/07:00pm | 15.6 | 15.6 | 11.2 | 75 | 2.4 | ESE | 2 | 6 | 1 | 3 | - | - | 0.0 |
| 30/06:30pm | 17.2 | 17.2 | 11.2 | 68 | 3.2 | ESE | 2 | 6 | 1 | 3 | - | - | 0.0 |
| 30/06:00pm | 18.3 | 17.9 | 11.1 | 63 | 3.9 | ESE | 4 | 9 | 2 | 5 | - | - | 0.0 |
| 30/05:30pm | 19.1 | 18.8 | 11.4 | 61 | 4.2 | E | 4 | 13 | 2 | 7 | - | - | 0.0 |
| 30/05:00pm | 20.3 | 19.6 | 12.0 | 59 | 4.6 | ESE | 7 | 17 | 4 | 9 | - | - | 0.0 |
| 30/04:30pm | 21.2 | 20.1 | 12.1 | 56 | 5.1 | E | 9 | 19 | 5 | 10 | - | - | 0.0 |
| 30/04:00pm | 21.6 | 20.6 | 12.2 | 55 | 5.3 | E | 9 | 19 | 5 | 10 | - | - | 0.0 |
| 30/03:30pm | 23.0 | 21.6 | 12.3 | 51 | 6.1 | ENE | 11 | 22 | 6 | 12 | - | - | 0.0 |
| 30/03:00pm | 22.3 | 21.8 | 12.0 | 52 | 5.8 | E | 6 | 13 | 3 | 7 | - | - | 0.0 |
| 30/02:30pm | 22.6 | 21.8 | 11.0 | 48 | 6.4 | E | 6 | 9 | 3 | 5 | - | - | 0.0 |
| 30/02:00pm | 24.8 | 24.3 | 12.1 | 45 | 7.3 | ENE | 6 | 9 | 3 | 5 | - | - | 0.0 |
| 30/01:30pm | 24.2 | 23.7 | 12.5 | 48 | 6.7 | ENE | 7 | 19 | 4 | 10 | - | - | 0.0 |
| 30/01:00pm | 22.5 | 22.5 | 11.3 | 49 | 6.2 | SSE | 2 | 6 | 1 | 3 | - | - | 0.0 |
| 30/12:30pm | 23.8 | 22.9 | 11.2 | 45 | 7.1 | SE | 7 | 17 | 4 | 9 | - | - | 0.0 |
| 30/12:00pm | 22.1 | 21.7 | 11.2 | 50 | 6.1 | W | 4 | 6 | 2 | 3 | - | - | 0.0 |
| 30/11:30am | 21.5 | 20.7 | 11.2 | 52 | 5.7 | SW | 6 | 9 | 3 | 5 | - | - | 0.0 |
| 30/11:00am | 21.7 | 20.8 | 11.4 | 52 | 5.7 | WSW | 7 | 13 | 4 | 7 | - | - | 0.0 |
| 30/10:30am | 21.5 | 20.7 | 11.8 | 54 | 5.4 | S | 7 | 15 | 4 | 8 | - | - | 0.0 |
| 30/10:00am | 21.2 | 20.6 | 12.3 | 57 | 5.0 | S | 7 | 13 | 4 | 7 | - | - | 0.0 |
| 30/09:30am | 20.9 | 20.4 | 12.6 | 59 | 4.7 | S | 7 | 15 | 4 | 8 | - | - | 0.0 |
| 30/09:00am | 19.6 | 19.1 | 12.8 | 65 | 3.8 | SW | 7 | 13 | 4 | 7 | - | - | 0.0 |
| 30/08:30am | 18.1 | 18.3 | 13.2 | 73 | 2.8 | SSW | 4 | 11 | 2 | 6 | - | - | 0.0 |
| 30/08:00am | 16.9 | 16.6 | 12.8 | 77 | 2.3 | S | 6 | 13 | 3 | 7 | - | - | 0.0 |
| 30/07:30am | 12.7 | 13.4 | 12.1 | 96 | 0.3 | CALM | 0 | 0 | 0 | 0 | - | - | 0.0 |
| 30/07:00am | 11.2 | 11.5 | 11.0 | 99 | 0.1 | CALM | 0 | 0 | 0 | 0 | - | - | 0.0 |
| 30/06:30am | 10.1 | 10.2 | 10.0 | 99 | 0.1 | CALM | 0 | 0 | 0 | 0 | - | - | 0.0 |
| 30/06:00am | 9.6 | 9.5 | 9.5 | 99 | 0.0 | CALM | 0 | 0 | 0 | 0 | - | - | 0.0 |
Latest Capital City Observations: Canberra | Sydney | Melbourne | Brisbane | Adelaide | Perth | Hobart | Darwin
Other formats
Comma delimited format used in spreadsheet applications
http://www.bom.gov.au/fwo/IDQ60901/IDQ60901.94419.axf
JavaScript Object Notation format (JSON) in row-major order
http://www.bom.gov.au/fwo/IDQ60901/IDQ60901.94419.json
Data quality
Most of these data are generated automatically and are frequently updated. Quality checks on data are not normally performed. It is possible for incorrect values to appear. Refer to information at About Latest Weather Observations and please check the disclaimer before using these data.
